createdAt,value
2022-11-28T00:00:42.613Z,79.43
2022-11-28T00:01:42.263Z,79.77
2022-11-28T00:02:41.894Z,79.98
2022-11-28T00:03:41.782Z,79.36
2022-11-28T00:04:42.115Z,79.12
2022-11-28T00:05:46.760Z,79.33
2022-11-28T00:06:41.913Z,78.71
2022-11-28T00:07:41.793Z,79.02
2022-11-28T00:08:41.731Z,78.54
2022-11-28T00:09:41.732Z,79.33
2022-11-28T00:10:41.741Z,77.82
2022-11-28T00:11:41.741Z,77.17
2022-11-28T00:12:41.802Z,77.68
2022-11-28T00:13:41.824Z,78.09
2022-11-28T00:14:42.005Z,77.48
2022-11-28T00:15:41.695Z,77.17
2022-11-28T00:16:41.990Z,77.78
2022-11-28T00:17:42.045Z,77.48
2022-11-28T00:18:42.210Z,77.68
2022-11-28T00:19:42.221Z,77.89
2022-11-28T00:20:41.648Z,77.37
2022-11-28T00:21:41.629Z,77.58
2022-11-28T00:22:42.279Z,77.68
2022-11-28T00:23:42.241Z,77.72
2022-11-28T00:24:42.699Z,77.31
2022-11-28T00:25:42.459Z,76.55
2022-11-28T00:26:42.510Z,77.51
2022-11-28T00:27:42.518Z,78.44
2022-11-28T00:28:42.480Z,78.13
2022-11-28T00:29:41.848Z,77.20
2022-11-28T00:30:41.531Z,77.20
2022-11-28T00:31:43.198Z,77.51
2022-11-28T00:32:41.517Z,76.59
2022-11-28T00:33:41.528Z,76.28
2022-11-28T00:34:41.923Z,76.59
2022-11-28T00:35:41.518Z,76.86
2022-11-28T00:36:41.496Z,76.90
2022-11-28T00:37:41.493Z,76.28
2022-11-28T00:38:41.504Z,77.82
2022-11-28T00:39:41.558Z,77.41
2022-11-28T00:40:41.478Z,77.51
2022-11-28T00:41:41.617Z,76.59
2022-11-28T00:42:41.534Z,77.41
2022-11-28T00:43:41.597Z,76.07
2022-11-28T00:46:07.466Z,76.97
2022-11-28T00:47:07.487Z,75.93
2022-11-28T00:48:07.496Z,76.45
2022-11-28T00:49:07.506Z,76.45
2022-11-28T00:50:07.718Z,76.55
2022-11-28T00:51:07.738Z,76.86
2022-11-28T00:52:07.735Z,76.55
2022-11-28T00:53:07.743Z,76.04
2022-11-28T00:54:07.745Z,76.14
2022-11-28T00:55:07.785Z,75.42
2022-11-28T00:56:07.964Z,76.45
2022-11-28T00:57:07.768Z,76.55
2022-11-28T00:58:07.984Z,76.35
2022-11-28T00:59:07.333Z,76.55
2022-11-28T01:00:08.173Z,77.68
2022-11-28T01:01:08.296Z,77.48
2022-11-28T01:02:08.257Z,77.20
2022-11-28T01:03:08.155Z,76.25
2022-11-28T01:04:08.239Z,76.55
2022-11-28T01:05:07.415Z,76.25
2022-11-28T01:06:08.113Z,75.12
2022-11-28T01:07:07.651Z,75.01
2022-11-28T01:08:08.172Z,75.83
2022-11-28T01:09:08.073Z,76.14
2022-11-28T01:10:07.454Z,75.83
2022-11-28T01:11:07.852Z,75.93
2022-11-28T01:12:08.305Z,75.32
2022-11-28T01:13:08.072Z,75.52
2022-11-28T01:14:08.110Z,76.14
2022-11-28T01:15:08.271Z,75.21
2022-11-28T01:16:07.389Z,75.01
2022-11-28T01:17:07.212Z,75.63
2022-11-28T01:18:07.290Z,75.42
2022-11-28T01:19:07.249Z,75.73
2022-11-28T01:20:07.189Z,75.97
2022-11-28T01:21:07.273Z,75.42
2022-11-28T01:22:07.211Z,76.14
2022-11-28T01:23:07.149Z,75.97
2022-11-28T01:24:07.149Z,76.18
2022-11-28T01:25:07.147Z,75.87
2022-11-28T01:26:07.127Z,76.18
2022-11-28T01:27:07.141Z,75.76
2022-11-28T01:28:07.118Z,76.28
2022-11-28T01:29:07.108Z,76.69
2022-11-28T01:30:07.167Z,76.48
2022-11-28T01:31:07.144Z,75.97
2022-11-28T01:32:07.109Z,75.46
2022-11-28T01:33:07.396Z,76.38
2022-11-28T01:34:07.089Z,76.90
2022-11-28T01:35:07.075Z,76.48
2022-11-28T01:36:07.112Z,75.76
2022-11-28T01:37:07.083Z,76.07
2022-11-28T01:38:07.074Z,76.07
2022-11-28T01:39:07.046Z,76.28
2022-11-28T01:40:07.044Z,75.97
2022-11-28T01:41:07.034Z,75.76
2022-11-28T01:42:07.053Z,76.38
2022-11-28T01:43:07.028Z,76.18
2022-11-28T01:44:07.023Z,76.18
2022-11-28T01:45:07.082Z,76.04
2022-11-28T01:46:07.015Z,75.97
2022-11-28T01:47:07.339Z,76.35
2022-11-28T01:48:07.017Z,76.55
2022-11-28T01:49:06.983Z,76.28
2022-11-28T01:50:06.990Z,76.76
2022-11-28T01:51:06.963Z,76.38
2022-11-28T01:52:06.992Z,76.55
2022-11-28T01:53:06.952Z,76.59
2022-11-28T01:54:06.953Z,76.69
2022-11-28T01:55:06.965Z,76.48
2022-11-28T01:56:06.935Z,76.35
2022-11-28T01:57:06.933Z,76.45
2022-11-28T01:58:06.942Z,76.14
2022-11-28T01:59:06.920Z,76.04
2022-11-28T02:00:06.993Z,75.83
2022-11-28T02:01:06.967Z,75.83
2022-11-28T02:02:07.043Z,76.45
2022-11-28T02:03:06.920Z,76.14
2022-11-28T02:04:06.883Z,76.14
2022-11-28T02:05:06.872Z,76.04
2022-11-28T02:06:06.868Z,76.76
2022-11-28T02:07:07.021Z,75.83
2022-11-28T02:08:06.984Z,75.73
2022-11-28T02:09:06.861Z,76.04
2022-11-28T02:10:06.848Z,75.93
2022-11-28T02:11:06.830Z,76.14
2022-11-28T02:12:06.828Z,76.76
2022-11-28T02:13:06.839Z,76.76
2022-11-28T02:14:06.818Z,76.55
2022-11-28T02:15:06.807Z,76.35
2022-11-28T02:16:06.903Z,75.73
2022-11-28T02:17:06.890Z,75.93
2022-11-28T02:18:06.811Z,76.35
2022-11-28T02:19:06.787Z,75.83
2022-11-28T02:20:06.777Z,76.04
2022-11-28T02:21:06.772Z,76.45
2022-11-28T02:22:06.775Z,76.14
2022-11-28T02:23:06.774Z,76.35
2022-11-28T02:24:06.745Z,77.48
2022-11-28T02:25:06.776Z,77.78
2022-11-28T02:26:06.745Z,78.50
2022-11-28T02:27:06.725Z,79.74
2022-11-28T02:28:06.735Z,79.67
2022-11-28T02:29:06.714Z,80.80
2022-11-28T02:30:06.775Z,81.42
2022-11-28T02:31:06.761Z,81.62
2022-11-28T02:32:06.721Z,81.73
2022-11-28T02:33:06.713Z,82.55
2022-11-28T02:34:07.012Z,82.14
2022-11-28T02:35:07.025Z,82.59
2022-11-28T02:36:06.676Z,82.79
2022-11-28T02:37:06.664Z,83.20
2022-11-28T02:38:06.912Z,81.67
2022-11-28T02:39:06.657Z,81.87
2022-11-28T02:40:06.660Z,83.78
2022-11-28T02:41:06.643Z,83.11
2022-11-28T02:42:06.667Z,84.34
2022-11-28T02:43:07.103Z,85.26
2022-11-28T02:44:06.926Z,86.08
2022-11-28T02:45:07.116Z,87.12
2022-11-28T02:46:06.942Z,86.95
2022-11-28T02:47:06.633Z,85.71
2022-11-28T02:48:06.817Z,86.74
2022-11-28T02:49:06.580Z,86.95
2022-11-28T02:50:07.341Z,87.67
2022-11-28T02:51:06.569Z,85.82
2022-11-28T02:52:06.569Z,86.33
2022-11-28T02:53:06.578Z,86.13
2022-11-28T02:54:06.551Z,86.85
2022-11-28T02:55:06.562Z,86.43
2022-11-28T02:56:06.575Z,84.27
2022-11-28T02:57:06.567Z,84.89
2022-11-28T02:58:06.556Z,84.27
2022-11-28T02:59:06.547Z,83.14
2022-11-28T03:00:06.527Z,82.69
2022-11-28T03:01:06.549Z,81.87
2022-11-28T03:02:06.586Z,81.87
2022-11-28T03:03:06.530Z,83.20
2022-11-28T03:04:06.488Z,83.11
2022-11-28T03:05:06.506Z,81.87
2022-11-28T03:06:06.514Z,81.67
2022-11-28T03:07:06.518Z,81.97
2022-11-28T03:08:06.518Z,83.20
2022-11-28T03:09:06.538Z,82.07
2022-11-28T03:10:06.455Z,80.94
2022-11-28T03:11:06.435Z,81.35
2022-11-28T03:12:06.447Z,80.84
2022-11-28T03:13:06.456Z,81.15
2022-11-28T03:14:06.423Z,79.61
2022-11-28T03:15:06.415Z,80.22
2022-11-28T03:16:06.488Z,80.19
2022-11-28T03:17:06.396Z,79.77
2022-11-28T03:18:06.703Z,79.67
2022-11-28T03:19:06.714Z,79.05
2022-11-28T03:20:06.713Z,80.29
2022-11-28T03:21:06.513Z,79.36
2022-11-28T03:22:06.733Z,79.47
2022-11-28T03:23:06.370Z,78.33
2022-11-28T03:24:06.373Z,77.41
2022-11-28T03:25:06.352Z,78.33
2022-11-28T03:26:06.762Z,77.82
2022-11-28T03:27:06.333Z,78.44
2022-11-28T03:28:06.363Z,78.13
2022-11-28T03:29:06.341Z,78.75
2022-11-28T03:30:06.393Z,79.16
2022-11-28T03:31:06.374Z,79.57
2022-11-28T03:32:06.330Z,79.98
2022-11-28T03:33:06.303Z,78.44
2022-11-28T03:34:06.311Z,78.85
2022-11-28T03:35:06.282Z,80.19
2022-11-28T03:36:06.280Z,79.88
2022-11-28T03:37:06.742Z,81.73
2022-11-28T03:38:06.749Z,81.83
2022-11-28T03:39:06.759Z,83.68
2022-11-28T03:40:06.767Z,85.06
2022-11-28T03:41:06.981Z,85.36
2022-11-28T03:42:06.240Z,84.13
2022-11-28T03:43:06.241Z,85.68
2022-11-28T03:44:06.268Z,83.97
2022-11-28T03:45:06.231Z,83.65
2022-11-28T03:46:06.280Z,84.95
2022-11-28T03:47:06.294Z,84.69
2022-11-28T03:48:06.231Z,85.82
2022-11-28T03:49:06.418Z,86.02
2022-11-28T03:50:06.429Z,85.82
2022-11-28T03:51:06.237Z,85.71
2022-11-28T03:52:06.454Z,85.51
2022-11-28T03:53:06.645Z,84.17
2022-11-28T03:54:06.646Z,83.45
2022-11-28T03:55:06.657Z,85.10
2022-11-28T03:56:06.200Z,83.35
2022-11-28T03:57:06.146Z,83.65
2022-11-28T03:58:06.155Z,84.38
2022-11-28T03:59:06.144Z,84.99
2022-11-28T04:00:06.164Z,84.58
2022-11-28T04:01:06.157Z,83.04
2022-11-28T04:02:06.145Z,84.79
2022-11-28T04:03:06.192Z,83.25
2022-11-28T04:04:06.255Z,83.97
2022-11-28T04:05:06.103Z,82.73
2022-11-28T04:06:06.321Z,83.35
2022-11-28T04:07:06.131Z,83.76
2022-11-28T04:08:07.029Z,83.65
2022-11-28T04:09:10.191Z,84.27
2022-11-28T04:10:06.143Z,83.04
2022-11-28T04:11:06.974Z,82.32
2022-11-28T04:12:06.162Z,82.73
2022-11-28T04:13:06.372Z,80.53
2022-11-28T04:14:06.372Z,81.87
2022-11-28T04:15:06.402Z,82.07
2022-11-28T04:16:06.666Z,80.94
2022-11-28T04:17:06.191Z,80.94
2022-11-28T04:18:06.410Z,80.22
2022-11-28T04:19:06.018Z,79.91
2022-11-28T04:20:06.420Z,80.33
2022-11-28T04:21:06.040Z,80.43
2022-11-28T04:22:06.045Z,80.43
2022-11-28T04:24:32.263Z,79.40
2022-11-28T04:25:32.280Z,79.09
2022-11-28T04:26:31.946Z,79.05
2022-11-28T04:27:32.693Z,79.47
2022-11-28T04:28:32.283Z,78.64
2022-11-28T04:29:32.293Z,79.26
2022-11-28T04:30:32.504Z,79.47
2022-11-28T04:31:32.576Z,79.77
2022-11-28T04:32:31.903Z,80.49
2022-11-28T04:33:32.112Z,80.19
2022-11-28T04:34:32.642Z,79.88
2022-11-28T04:35:32.552Z,81.01
2022-11-28T04:36:32.553Z,81.11
2022-11-28T04:37:31.951Z,81.35
2022-11-28T04:38:32.152Z,82.18
2022-11-28T04:39:32.685Z,83.20
2022-11-28T04:40:32.382Z,84.64
2022-11-28T04:41:32.692Z,84.34
2022-11-28T04:42:32.692Z,85.47
2022-11-28T04:43:32.830Z,86.33
2022-11-28T04:44:32.000Z,85.92
2022-11-28T04:45:32.670Z,86.02
2022-11-28T04:46:32.209Z,85.41
2022-11-28T04:47:32.732Z,85.82
2022-11-28T04:48:34.504Z,84.48
2022-11-28T04:49:32.028Z,84.38
2022-11-28T04:50:31.876Z,84.58
2022-11-28T04:51:32.049Z,84.69
2022-11-28T04:52:31.850Z,84.69
2022-11-28T04:53:31.798Z,85.61
2022-11-28T04:54:32.487Z,84.69
2022-11-28T04:55:32.077Z,82.83
2022-11-28T04:56:32.326Z,81.81
2022-11-28T04:57:31.884Z,81.76
2022-11-28T04:58:31.765Z,81.87
2022-11-28T04:59:31.796Z,81.87
2022-11-28T05:00:31.850Z,82.69
2022-11-28T05:01:31.726Z,82.18
2022-11-28T05:02:31.773Z,82.69
2022-11-28T05:03:31.726Z,82.69
2022-11-28T05:04:31.840Z,80.74
2022-11-28T05:05:31.735Z,80.94
2022-11-28T05:06:31.957Z,81.76
2022-11-28T05:07:33.202Z,79.81
2022-11-28T05:08:31.785Z,80.22
2022-11-28T05:09:32.016Z,79.61
2022-11-28T05:10:31.992Z,79.67
2022-11-28T05:11:31.739Z,79.26
2022-11-28T05:12:31.684Z,78.13
2022-11-28T05:13:31.783Z,78.85
2022-11-28T05:14:31.642Z,79.26
2022-11-28T05:15:32.213Z,78.75
2022-11-28T05:16:31.730Z,78.33
2022-11-28T05:17:31.622Z,79.16
2022-11-28T05:18:31.625Z,80.60
2022-11-28T05:19:32.043Z,81.15
2022-11-28T05:20:32.042Z,82.07
2022-11-28T05:21:32.253Z,81.76
2022-11-28T05:22:32.263Z,81.46
2022-11-28T05:23:31.652Z,83.62
2022-11-28T05:24:32.472Z,83.65
2022-11-28T05:25:32.289Z,81.91
2022-11-28T05:26:32.082Z,82.73
2022-11-28T05:27:32.290Z,82.93
2022-11-28T05:28:32.369Z,83.76
2022-11-28T05:29:31.591Z,85.92
2022-11-28T05:30:31.911Z,84.99
2022-11-28T05:31:31.535Z,86.27
2022-11-28T05:32:31.523Z,84.42
2022-11-28T05:33:31.520Z,82.73
2022-11-28T05:34:31.519Z,84.48
2022-11-28T05:35:31.535Z,84.17
2022-11-28T05:36:31.539Z,84.17
2022-11-28T05:37:31.760Z,85.82
2022-11-28T05:38:31.768Z,83.97
2022-11-28T05:39:31.767Z,82.32
2022-11-28T05:40:31.784Z,83.97
2022-11-28T05:41:31.579Z,83.76
2022-11-28T05:42:31.479Z,83.86
2022-11-28T05:43:32.005Z,83.55
2022-11-28T05:44:32.008Z,84.48
2022-11-28T05:45:31.628Z,84.89
2022-11-28T05:46:32.026Z,83.14
2022-11-28T05:47:31.627Z,83.86
2022-11-28T05:48:31.825Z,84.38
2022-11-28T05:49:32.044Z,84.31
2022-11-28T05:50:35.714Z,83.35
2022-11-28T05:51:31.446Z,82.32
2022-11-28T05:52:31.655Z,82.32
2022-11-28T05:53:31.874Z,83.35
2022-11-28T05:54:32.286Z,83.55
2022-11-28T05:55:31.473Z,84.58
2022-11-28T05:56:32.243Z,84.89
2022-11-28T05:57:32.305Z,84.38
2022-11-28T05:58:31.692Z,84.79
2022-11-28T05:59:31.704Z,85.41
2022-11-28T06:00:32.123Z,86.74
2022-11-28T06:01:32.274Z,87.36
2022-11-28T06:02:31.351Z,88.08
2022-11-28T06:03:31.405Z,87.67
2022-11-28T06:04:31.385Z,86.88
2022-11-28T06:05:46.164Z,87.19
2022-11-28T06:06:31.554Z,84.11
2022-11-28T06:07:31.599Z,85.30
2022-11-28T06:08:31.351Z,84.27
2022-11-28T06:09:31.570Z,84.99
2022-11-28T06:10:31.271Z,84.38
2022-11-28T06:11:31.288Z,84.69
2022-11-28T06:12:31.280Z,84.99
2022-11-28T06:13:31.293Z,84.89
2022-11-28T06:14:31.300Z,84.17
2022-11-28T06:15:33.821Z,84.99
2022-11-28T06:16:31.519Z,82.42
2022-11-28T06:17:31.269Z,80.67
2022-11-28T06:18:31.454Z,80.36
2022-11-28T06:19:31.539Z,80.88
2022-11-28T06:20:31.337Z,81.19
2022-11-28T06:21:31.649Z,80.94
2022-11-28T06:22:31.558Z,81.46
2022-11-28T06:23:31.676Z,82.53
2022-11-28T06:24:31.189Z,80.88
2022-11-28T06:25:31.194Z,82.48
2022-11-28T06:26:31.377Z,82.39
2022-11-28T06:27:31.178Z,81.49
2022-11-28T06:28:31.185Z,80.74
2022-11-28T06:29:31.156Z,81.87
2022-11-28T06:30:31.206Z,83.31
2022-11-28T06:31:31.248Z,83.72
2022-11-28T06:32:31.216Z,84.99
2022-11-28T06:33:31.125Z,83.97
2022-11-28T06:34:31.144Z,83.65
2022-11-28T06:35:31.136Z,84.48
2022-11-28T06:36:31.244Z,84.58
2022-11-28T06:37:31.254Z,85.41
2022-11-28T06:38:31.254Z,86.64
2022-11-28T06:39:31.157Z,87.81
2022-11-28T06:40:31.275Z,86.99
2022-11-28T06:41:31.287Z,87.81
2022-11-28T06:42:31.282Z,88.74
2022-11-28T06:43:31.392Z,87.40
2022-11-28T06:45:57.237Z,89.29
2022-11-28T06:46:57.122Z,88.68
2022-11-28T06:47:57.192Z,89.40
2022-11-28T06:48:57.002Z,90.33
2022-11-28T06:49:57.122Z,90.43
2022-11-28T06:50:57.005Z,90.64
2022-11-28T06:51:57.009Z,89.09
2022-11-28T06:52:57.023Z,88.17
2022-11-28T06:53:57.231Z,89.19
2022-11-28T06:54:57.030Z,89.19
2022-11-28T06:55:57.038Z,89.61
2022-11-28T06:56:57.250Z,89.61
2022-11-28T06:57:57.050Z,89.61
2022-11-28T06:58:57.500Z,88.06
2022-11-28T06:59:57.487Z,87.13
2022-11-28T07:00:56.957Z,87.24
2022-11-28T07:01:57.508Z,86.93
2022-11-28T07:02:57.129Z,87.81
2022-11-28T07:03:57.498Z,88.47
2022-11-28T07:04:57.509Z,89.61
2022-11-28T07:05:57.518Z,90.94
2022-11-28T07:06:57.748Z,90.01
2022-11-28T07:07:57.719Z,90.43
2022-11-28T07:08:57.752Z,90.94
2022-11-28T07:09:56.926Z,92.08
2022-11-28T07:10:56.927Z,93.01
2022-11-28T07:11:57.808Z,93.41
2022-11-28T07:13:01.259Z,93.25
2022-11-28T07:13:57.579Z,93.46
2022-11-28T07:14:56.823Z,94.08
2022-11-28T07:15:57.699Z,94.49
2022-11-28T07:16:56.942Z,94.70
2022-11-28T07:17:56.815Z,95.42
2022-11-28T07:18:56.792Z,95.52
2022-11-28T07:19:57.053Z,95.52
2022-11-28T07:20:56.816Z,95.62
2022-11-28T07:21:56.844Z,95.62
2022-11-28T07:22:56.813Z,95.52
2022-11-28T07:23:56.832Z,95.21
2022-11-28T07:24:56.841Z,95.42
2022-11-28T07:25:56.736Z,95.62
2022-11-28T07:26:56.744Z,95.31
2022-11-28T07:27:56.844Z,95.93
2022-11-28T07:28:56.722Z,96.08
2022-11-28T07:29:56.863Z,96.08
2022-11-28T07:30:56.894Z,96.28
2022-11-28T07:31:56.726Z,96.91
2022-11-28T07:32:56.881Z,97.11
2022-11-28T07:33:57.111Z,97.21
2022-11-28T07:34:57.123Z,95.67
2022-11-28T07:35:57.115Z,95.05
2022-11-28T07:36:56.926Z,93.30
2022-11-28T07:37:56.981Z,88.10
2022-11-28T07:38:56.713Z,87.79
2022-11-28T07:39:57.132Z,89.50
2022-11-28T07:40:56.729Z,87.96
2022-11-28T07:41:56.728Z,89.09
2022-11-28T07:42:57.244Z,89.71
2022-11-28T07:43:56.757Z,89.91
2022-11-28T07:44:56.949Z,91.77
2022-11-28T07:46:00.988Z,93.01
2022-11-28T07:46:56.720Z,90.12
2022-11-28T07:47:56.780Z,90.53
2022-11-28T07:48:56.598Z,91.36
2022-11-28T07:49:56.582Z,92.38
2022-11-28T07:50:56.589Z,92.59
2022-11-28T07:51:56.610Z,93.11
2022-11-28T07:52:57.019Z,94.03
2022-11-28T07:53:56.559Z,94.13
2022-11-28T07:54:56.606Z,91.15
2022-11-28T07:55:56.617Z,92.49
2022-11-28T07:57:12.801Z,93.52
2022-11-28T07:57:57.756Z,93.62
2022-11-28T07:59:01.815Z,93.31
2022-11-28T07:59:56.645Z,93.52
2022-11-28T08:00:56.646Z,93.62
2022-11-28T08:01:56.675Z,93.73
2022-11-28T08:02:56.564Z,93.62
2022-11-28T08:03:56.618Z,94.13
2022-11-28T08:04:56.515Z,94.24
2022-11-28T08:06:01.432Z,94.65
2022-11-28T08:06:56.484Z,94.03
2022-11-28T08:07:56.739Z,93.41
2022-11-28T08:08:56.745Z,93.93
2022-11-28T08:09:56.731Z,94.13
2022-11-28T08:10:56.785Z,94.03
2022-11-28T08:11:56.505Z,94.45
2022-11-28T08:12:56.741Z,94.03
2022-11-28T08:13:58.038Z,93.62
2022-11-28T08:14:56.743Z,92.24
2022-11-28T08:15:56.752Z,92.38
2022-11-28T08:16:56.435Z,92.44
2022-11-28T08:17:56.402Z,93.16
2022-11-28T08:18:56.424Z,93.37
2022-11-28T08:19:56.385Z,93.58
2022-11-28T08:20:56.381Z,93.48
2022-11-28T08:21:56.381Z,93.99
2022-11-28T08:22:56.370Z,94.30
2022-11-28T08:23:56.381Z,94.40
2022-11-28T08:24:56.351Z,94.51
2022-11-28T08:25:56.341Z,94.09
2022-11-28T08:26:56.340Z,93.88
2022-11-28T08:27:56.329Z,93.48
2022-11-28T08:28:56.340Z,93.37
2022-11-28T08:29:56.461Z,93.79
2022-11-28T08:30:56.387Z,92.65
2022-11-28T08:31:56.319Z,91.72
2022-11-28T08:32:56.297Z,91.31
2022-11-28T08:33:56.309Z,92.40
2022-11-28T08:34:56.280Z,92.50
2022-11-28T08:35:56.279Z,92.61
2022-11-28T08:36:56.291Z,91.99
2022-11-28T08:38:01.476Z,91.78
2022-11-28T08:39:22.403Z,89.01
2022-11-28T08:39:56.246Z,89.52
2022-11-28T08:40:56.255Z,90.03
2022-11-28T08:41:56.307Z,90.09
2022-11-28T08:42:56.306Z,89.89
2022-11-28T08:43:56.235Z,89.07
2022-11-28T08:44:56.217Z,89.89
2022-11-28T08:45:56.333Z,90.09
2022-11-28T08:46:56.205Z,89.38
2022-11-28T08:47:56.218Z,89.69
2022-11-28T08:48:56.205Z,89.89
2022-11-28T08:49:56.176Z,90.92
2022-11-28T08:50:56.176Z,90.61
2022-11-28T08:51:56.214Z,91.02
2022-11-28T08:53:01.732Z,90.41
2022-11-28T08:53:59.285Z,89.28
2022-11-28T08:54:56.154Z,88.66
2022-11-28T08:55:56.145Z,86.80
2022-11-28T08:56:56.151Z,84.85
2022-11-28T08:57:56.203Z,86.46
2022-11-28T08:58:56.154Z,86.66
2022-11-28T08:59:56.126Z,85.94
2022-11-28T09:00:56.134Z,85.43
2022-11-28T09:01:56.093Z,84.61
2022-11-28T09:02:56.092Z,86.46
2022-11-28T09:03:56.280Z,86.97
2022-11-28T09:04:56.087Z,87.38
2022-11-28T09:05:56.064Z,87.49
2022-11-28T09:06:56.064Z,87.90
2022-11-28T09:07:56.150Z,88.00
2022-11-28T09:08:56.072Z,89.13
2022-11-28T09:09:56.040Z,88.92
2022-11-28T09:10:56.031Z,86.25
2022-11-28T09:11:56.030Z,85.18
2022-11-28T09:12:56.311Z,84.26
2022-11-28T09:13:56.084Z,83.68
2022-11-28T09:14:56.020Z,82.62
2022-11-28T09:15:56.007Z,84.88
2022-11-28T09:16:56.051Z,83.44
2022-11-28T09:17:56.120Z,82.41
2022-11-28T09:18:56.330Z,82.10
2022-11-28T09:19:55.990Z,81.79
2022-11-28T09:20:55.998Z,82.82
2022-11-28T09:21:57.828Z,82.92
2022-11-28T09:22:55.968Z,82.51
2022-11-28T09:23:55.948Z,82.20
2022-11-28T09:24:55.967Z,81.69
2022-11-28T09:25:55.939Z,81.24
2022-11-28T09:26:55.936Z,82.27
2022-11-28T09:27:55.920Z,81.24
2022-11-28T09:28:55.917Z,81.45
2022-11-28T09:29:55.963Z,80.73
2022-11-28T09:30:55.937Z,79.80
2022-11-28T09:31:55.887Z,79.08
2022-11-28T09:32:55.899Z,79.60
2022-11-28T09:33:55.886Z,79.56
2022-11-28T09:34:55.905Z,80.52
2022-11-28T09:35:56.444Z,80.69
2022-11-28T09:36:58.685Z,81.41
2022-11-28T09:37:55.856Z,82.03
2022-11-28T09:38:55.938Z,81.10
2022-11-28T09:40:12.835Z,81.30
2022-11-28T09:40:55.842Z,80.49
2022-11-28T09:41:55.846Z,80.18
2022-11-28T09:42:55.824Z,81.71
2022-11-28T09:43:56.035Z,80.69
2022-11-28T09:44:55.876Z,81.62
2022-11-28T09:45:55.861Z,81.30
2022-11-28T09:46:55.921Z,81.96
2022-11-28T09:47:55.913Z,83.29
2022-11-28T09:48:55.924Z,84.22
2022-11-28T09:49:55.793Z,85.18
2022-11-28T09:50:55.775Z,85.80
2022-11-28T09:51:55.983Z,87.38
2022-11-28T09:52:56.081Z,89.54
2022-11-28T09:53:56.161Z,90.78
2022-11-28T09:54:55.769Z,91.95
2022-11-28T09:55:55.743Z,93.18
2022-11-28T09:56:55.732Z,93.39
2022-11-28T09:57:55.799Z,93.80
2022-11-28T09:58:55.712Z,93.95
2022-11-28T09:59:55.721Z,93.95
2022-11-28T10:00:55.897Z,94.87
2022-11-28T10:01:55.699Z,95.59
2022-11-28T10:02:55.701Z,96.46
2022-11-28T10:03:55.806Z,98.16
2022-11-28T10:04:55.733Z,99.04
2022-11-28T10:05:55.727Z,98.93
2022-11-28T10:06:55.670Z,98.52
2022-11-28T10:07:55.724Z,98.62
2022-11-28T10:08:55.739Z,99.04
2022-11-28T10:09:55.734Z,99.44
2022-11-28T10:10:55.663Z,99.96
2022-11-28T10:11:55.630Z,99.99
2022-11-28T10:12:55.620Z,99.99
2022-11-28T10:14:07.934Z,99.99
2022-11-28T10:14:55.690Z,99.99
2022-11-28T10:15:55.607Z,99.99
2022-11-28T10:16:55.627Z,99.99
2022-11-28T10:17:55.618Z,99.99
2022-11-28T10:18:55.597Z,99.99
2022-11-28T10:19:55.593Z,99.99
2022-11-28T10:20:55.576Z,99.99
2022-11-28T10:21:59.299Z,99.99
2022-11-28T10:22:55.587Z,99.99
2022-11-28T10:23:55.571Z,99.99
2022-11-28T10:24:55.556Z,99.99
2022-11-28T10:25:55.558Z,99.99
2022-11-28T10:26:55.665Z,99.99
2022-11-28T10:27:55.515Z,99.99
2022-11-28T10:28:55.579Z,99.99
2022-11-28T10:29:55.500Z,99.99
2022-11-28T10:30:55.527Z,99.99
2022-11-28T10:31:55.499Z,99.99
2022-11-28T10:32:55.503Z,99.99
2022-11-28T10:33:55.504Z,99.99
2022-11-28T10:34:55.540Z,99.99
2022-11-28T10:35:55.463Z,99.99
2022-11-28T10:36:55.463Z,99.99
2022-11-28T10:37:55.464Z,99.99
2022-11-28T10:38:55.728Z,99.99
2022-11-28T10:39:55.433Z,99.99
2022-11-28T10:40:55.434Z,99.99
2022-11-28T10:41:55.479Z,99.99
2022-11-28T10:42:55.448Z,99.99
2022-11-28T10:43:55.466Z,99.99
2022-11-28T10:44:55.403Z,99.99
2022-11-28T10:45:55.539Z,99.99
2022-11-28T10:46:55.381Z,99.99
2022-11-28T10:47:55.401Z,99.99
2022-11-28T10:48:55.372Z,99.99
2022-11-28T10:49:55.527Z,99.99
2022-11-28T10:50:55.511Z,99.99
2022-11-28T10:51:55.611Z,99.66
2022-11-28T10:52:55.379Z,99.25
2022-11-28T10:53:55.330Z,99.56
2022-11-28T10:54:55.330Z,99.10
2022-11-28T10:55:55.346Z,99.41
2022-11-28T10:56:55.350Z,99.62
2022-11-28T10:57:55.329Z,99.21
2022-11-28T10:58:55.307Z,98.38
2022-11-28T10:59:55.288Z,97.66
2022-11-28T11:00:55.629Z,97.66
2022-11-28T11:01:55.624Z,97.97
2022-11-28T11:02:55.304Z,98.33
2022-11-28T11:03:55.619Z,98.54
2022-11-28T11:04:55.776Z,98.75
2022-11-28T11:05:55.496Z,98.03
2022-11-28T11:07:08.843Z,96.80
2022-11-28T11:07:55.563Z,96.48
2022-11-28T11:08:55.498Z,95.15
2022-11-28T11:09:55.496Z,94.64
2022-11-28T11:10:55.466Z,95.87
2022-11-28T11:11:55.216Z,96.08
2022-11-28T11:12:55.515Z,95.56
2022-11-28T11:13:55.306Z,95.05
2022-11-28T11:14:55.204Z,96.18
2022-11-28T11:15:55.247Z,95.05
2022-11-28T11:16:55.253Z,94.74
2022-11-28T11:17:55.336Z,95.46
2022-11-28T11:18:55.345Z,96.48
2022-11-28T11:19:55.526Z,96.48
2022-11-28T11:20:55.587Z,96.28
2022-11-28T11:21:55.735Z,95.67
2022-11-28T11:22:55.774Z,96.08
2022-11-28T11:23:55.323Z,95.77
2022-11-28T11:24:55.131Z,95.77
2022-11-28T11:25:55.239Z,96.28
2022-11-28T11:26:55.115Z,96.59
2022-11-28T11:27:55.107Z,95.87
2022-11-28T11:28:55.115Z,94.84
2022-11-28T11:29:55.199Z,94.74
2022-11-28T11:30:55.150Z,95.56
2022-11-28T11:31:55.084Z,96.39
2022-11-28T11:32:55.065Z,96.39
2022-11-28T11:33:55.086Z,96.18
2022-11-28T11:34:55.069Z,94.84
2022-11-28T11:35:55.060Z,95.05
2022-11-28T11:36:55.054Z,95.56
2022-11-28T11:37:55.181Z,95.25
2022-11-28T11:38:55.040Z,95.15
2022-11-28T11:39:55.032Z,95.77
2022-11-28T11:40:55.020Z,95.77
2022-11-28T11:41:55.211Z,95.46
2022-11-28T11:42:55.000Z,95.46
2022-11-28T11:43:55.043Z,95.25
2022-11-28T11:44:54.990Z,94.54
2022-11-28T11:45:55.046Z,95.46
2022-11-28T11:46:55.057Z,95.97
2022-11-28T11:47:54.977Z,95.56
2022-11-28T11:48:54.988Z,95.46
2022-11-28T11:49:55.068Z,95.46
2022-11-28T11:50:54.949Z,94.33
2022-11-28T11:51:55.183Z,94.12
2022-11-28T11:52:54.967Z,94.74
2022-11-28T11:53:54.959Z,95.46
2022-11-28T11:54:54.919Z,95.15
2022-11-28T11:55:54.918Z,95.77
2022-11-28T11:57:11.206Z,95.87
2022-11-28T11:57:54.911Z,95.67
2022-11-28T11:58:54.906Z,95.67
2022-11-28T11:59:54.946Z,95.46
2022-11-28T12:00:54.885Z,95.05
2022-11-28T12:01:54.876Z,95.05
2022-11-28T12:02:55.022Z,94.95
2022-11-28T12:03:54.944Z,94.54
2022-11-28T12:04:55.609Z,93.61
2022-11-28T12:06:24.817Z,93.40
2022-11-28T12:06:54.836Z,93.61
2022-11-28T12:07:54.927Z,93.61
2022-11-28T12:08:54.844Z,93.92
2022-11-28T12:09:54.934Z,93.20
2022-11-28T12:10:54.823Z,93.51
2022-11-28T12:11:54.805Z,94.33
2022-11-28T12:12:54.804Z,93.92
2022-11-28T12:13:54.823Z,94.43
2022-11-28T12:14:54.915Z,94.95
2022-11-28T12:15:54.863Z,94.64
2022-11-28T12:16:54.774Z,95.25
2022-11-28T12:17:58.781Z,95.67
2022-11-28T12:18:54.933Z,95.97
2022-11-28T12:19:54.751Z,96.18
2022-11-28T12:20:54.761Z,95.67
2022-11-28T12:21:54.764Z,96.48
2022-11-28T12:22:54.745Z,97.31
2022-11-28T12:23:54.873Z,97.10
2022-11-28T12:24:55.082Z,97.62
2022-11-28T12:25:55.095Z,97.82
2022-11-28T12:26:54.722Z,97.62
2022-11-28T12:27:55.110Z,97.62
2022-11-28T12:28:55.133Z,98.03
2022-11-28T12:29:54.700Z,97.52
2022-11-28T12:30:54.733Z,97.20
2022-11-28T12:31:54.708Z,97.62
2022-11-28T12:32:54.718Z,97.10
2022-11-28T12:33:54.681Z,97.10
2022-11-28T12:34:54.650Z,96.94
2022-11-28T12:35:56.975Z,96.53
2022-11-28T12:36:54.637Z,96.22
2022-11-28T12:38:10.196Z,95.92
2022-11-28T12:38:54.649Z,95.50
2022-11-28T12:39:54.669Z,96.53
2022-11-28T12:40:54.877Z,97.15
2022-11-28T12:41:55.087Z,97.00
2022-11-28T12:42:54.599Z,96.39
2022-11-28T12:43:54.617Z,96.69
2022-11-28T12:46:20.690Z,95.67
2022-11-28T12:47:20.535Z,95.05
2022-11-28T12:48:20.533Z,95.36
2022-11-28T12:49:20.605Z,95.05
2022-11-28T12:50:20.523Z,95.05
2022-11-28T12:51:20.511Z,94.95
2022-11-28T12:52:20.505Z,94.95
2022-11-28T12:53:20.575Z,94.43
2022-11-28T12:54:20.504Z,94.74
2022-11-28T12:55:20.495Z,94.95
2022-11-28T12:56:20.523Z,95.46
2022-11-28T12:57:20.472Z,95.25
2022-11-28T12:58:20.472Z,95.15